sensor_id;sensor_type;location;lat;lon;timestamp;temperature;humidity
39601;DHT22;25297;44.758;11.310;2023-02-28T00:01:12;9.10;78.70
39601;DHT22;25297;44.758;11.310;2023-02-28T00:03:38;9.10;78.50
39601;DHT22;25297;44.758;11.310;2023-02-28T00:06:06;9.10;78.40
39601;DHT22;25297;44.758;11.310;2023-02-28T00:08:32;9.10;78.20
39601;DHT22;25297;44.758;11.310;2023-02-28T00:11:05;9.10;78.10
39601;DHT22;25297;44.758;11.310;2023-02-28T00:13:31;9.10;77.90
39601;DHT22;25297;44.758;11.310;2023-02-28T00:16:06;9.10;77.80
39601;DHT22;25297;44.758;11.310;2023-02-28T00:18:32;9.10;77.80
39601;DHT22;25297;44.758;11.310;2023-02-28T00:20:58;9.10;77.60
39601;DHT22;25297;44.758;11.310;2023-02-28T00:23:25;9.10;77.40
39601;DHT22;25297;44.758;11.310;2023-02-28T00:25:51;9.10;77.50
39601;DHT22;25297;44.758;11.310;2023-02-28T00:28:16;9.10;77.40
39601;DHT22;25297;44.758;11.310;2023-02-28T00:30:42;9.10;77.30
39601;DHT22;25297;44.758;11.310;2023-02-28T00:33:08;9.10;77.30
39601;DHT22;25297;44.758;11.310;2023-02-28T00:35:33;9.20;77.30
39601;DHT22;25297;44.758;11.310;2023-02-28T00:37:59;9.20;77.60
39601;DHT22;25297;44.758;11.310;2023-02-28T00:40:25;9.20;78.30
39601;DHT22;25297;44.758;11.310;2023-02-28T00:42:50;9.20;77.70
39601;DHT22;25297;44.758;11.310;2023-02-28T00:45:16;9.20;77.80
39601;DHT22;25297;44.758;11.310;2023-02-28T00:47:44;9.20;78.00
39601;DHT22;25297;44.758;11.310;2023-02-28T00:50:12;9.20;77.90
39601;DHT22;25297;44.758;11.310;2023-02-28T00:52:38;9.20;78.10
39601;DHT22;25297;44.758;11.310;2023-02-28T00:55:04;9.20;78.20
39601;DHT22;25297;44.758;11.310;2023-02-28T00:57:31;9.20;78.10
39601;DHT22;25297;44.758;11.310;2023-02-28T00:59:57;9.20;78.00
39601;DHT22;25297;44.758;11.310;2023-02-28T01:02:23;9.20;77.80
39601;DHT22;25297;44.758;11.310;2023-02-28T01:04:48;9.20;77.70
39601;DHT22;25297;44.758;11.310;2023-02-28T01:07:14;9.20;77.70
39601;DHT22;25297;44.758;11.310;2023-02-28T01:09:41;9.30;77.50
39601;DHT22;25297;44.758;11.310;2023-02-28T01:12:09;9.20;77.60
39601;DHT22;25297;44.758;11.310;2023-02-28T01:14:35;9.20;77.80
39601;DHT22;25297;44.758;11.310;2023-02-28T01:17:01;9.20;77.90
39601;DHT22;25297;44.758;11.310;2023-02-28T01:19:27;9.20;77.90
39601;DHT22;25297;44.758;11.310;2023-02-28T01:21:53;9.20;78.10
39601;DHT22;25297;44.758;11.310;2023-02-28T01:24:18;9.20;78.10
39601;DHT22;25297;44.758;11.310;2023-02-28T01:26:44;9.20;78.20
39601;DHT22;25297;44.758;11.310;2023-02-28T01:29:10;9.20;78.00
39601;DHT22;25297;44.758;11.310;2023-02-28T01:31:36;9.20;78.10
39601;DHT22;25297;44.758;11.310;2023-02-28T01:34:02;9.20;78.20
39601;DHT22;25297;44.758;11.310;2023-02-28T01:36:29;9.20;78.40
39601;DHT22;25297;44.758;11.310;2023-02-28T01:38:54;9.20;78.40
39601;DHT22;25297;44.758;11.310;2023-02-28T01:41:27;9.20;78.30
39601;DHT22;25297;44.758;11.310;2023-02-28T01:46:19;9.20;77.90
39601;DHT22;25297;44.758;11.310;2023-02-28T01:48:54;9.20;77.80
39601;DHT22;25297;44.758;11.310;2023-02-28T01:54:03;9.10;78.30
39601;DHT22;25297;44.758;11.310;2023-02-28T01:56:33;9.10;77.70
39601;DHT22;25297;44.758;11.310;2023-02-28T01:59:00;9.10;77.80
39601;DHT22;25297;44.758;11.310;2023-02-28T02:01:27;9.10;77.80
39601;DHT22;25297;44.758;11.310;2023-02-28T02:03:59;9.10;77.80
39601;DHT22;25297;44.758;11.310;2023-02-28T02:06:29;9.10;77.60
39601;DHT22;25297;44.758;11.310;2023-02-28T02:08:55;9.10;77.50
39601;DHT22;25297;44.758;11.310;2023-02-28T02:11:22;9.10;77.40
39601;DHT22;25297;44.758;11.310;2023-02-28T02:22:23;9.00;77.00
39601;DHT22;25297;44.758;11.310;2023-02-28T02:30:33;9.10;77.30
39601;DHT22;25297;44.758;11.310;2023-02-28T02:41:28;9.10;77.20
39601;DHT22;25297;44.758;11.310;2023-02-28T02:46:45;9.00;76.90
39601;DHT22;25297;44.758;11.310;2023-02-28T02:49:31;9.00;76.90
39601;DHT22;25297;44.758;11.310;2023-02-28T02:52:02;9.00;77.00
39601;DHT22;25297;44.758;11.310;2023-02-28T02:54:31;9.10;77.00
39601;DHT22;25297;44.758;11.310;2023-02-28T02:57:04;9.10;76.80
39601;DHT22;25297;44.758;11.310;2023-02-28T02:59:30;9.10;76.80
39601;DHT22;25297;44.758;11.310;2023-02-28T03:02:00;9.10;77.00
39601;DHT22;25297;44.758;11.310;2023-02-28T03:04:34;9.10;77.00
39601;DHT22;25297;44.758;11.310;2023-02-28T03:07:00;9.10;77.10
39601;DHT22;25297;44.758;11.310;2023-02-28T03:09:26;9.10;77.40
39601;DHT22;25297;44.758;11.310;2023-02-28T03:11:54;9.10;77.50
39601;DHT22;25297;44.758;11.310;2023-02-28T03:14:25;9.10;77.60
39601;DHT22;25297;44.758;11.310;2023-02-28T03:22:33;9.10;77.90
39601;DHT22;25297;44.758;11.310;2023-02-28T03:25:04;9.10;78.10
39601;DHT22;25297;44.758;11.310;2023-02-28T03:27:36;9.10;78.20
39601;DHT22;25297;44.758;11.310;2023-02-28T03:30:28;9.10;78.40
39601;DHT22;25297;44.758;11.310;2023-02-28T03:35:40;9.10;78.70
39601;DHT22;25297;44.758;11.310;2023-02-28T03:38:16;9.20;78.80
39601;DHT22;25297;44.758;11.310;2023-02-28T03:40:53;9.10;78.70
39601;DHT22;25297;44.758;11.310;2023-02-28T03:43:26;9.10;78.80
39601;DHT22;25297;44.758;11.310;2023-02-28T03:45:53;9.10;78.90
39601;DHT22;25297;44.758;11.310;2023-02-28T03:51:45;9.10;78.90
39601;DHT22;25297;44.758;11.310;2023-02-28T03:54:32;9.10;78.60
39601;DHT22;25297;44.758;11.310;2023-02-28T03:59:56;9.10;78.20
39601;DHT22;25297;44.758;11.310;2023-02-28T04:02:24;9.10;78.20
39601;DHT22;25297;44.758;11.310;2023-02-28T04:04:50;9.10;78.00
39601;DHT22;25297;44.758;11.310;2023-02-28T04:13:23;9.00;78.00
39601;DHT22;25297;44.758;11.310;2023-02-28T04:15:49;9.00;78.30
39601;DHT22;25297;44.758;11.310;2023-02-28T04:18:14;9.00;78.40
39601;DHT22;25297;44.758;11.310;2023-02-28T04:20:40;9.00;78.30
39601;DHT22;25297;44.758;11.310;2023-02-28T04:23:05;9.00;78.50
39601;DHT22;25297;44.758;11.310;2023-02-28T04:25:31;9.00;78.60
39601;DHT22;25297;44.758;11.310;2023-02-28T04:27:56;9.00;78.40
39601;DHT22;25297;44.758;11.310;2023-02-28T04:30:22;9.00;78.50
39601;DHT22;25297;44.758;11.310;2023-02-28T04:32:48;9.10;78.70
39601;DHT22;25297;44.758;11.310;2023-02-28T04:35:13;9.00;78.80
39601;DHT22;25297;44.758;11.310;2023-02-28T04:37:39;9.10;78.70
39601;DHT22;25297;44.758;11.310;2023-02-28T04:40:05;9.10;78.40
39601;DHT22;25297;44.758;11.310;2023-02-28T04:42:31;9.10;78.50
39601;DHT22;25297;44.758;11.310;2023-02-28T04:45:01;9.10;78.50
39601;DHT22;25297;44.758;11.310;2023-02-28T04:47:27;9.10;78.60
39601;DHT22;25297;44.758;11.310;2023-02-28T04:49:53;9.10;78.50
39601;DHT22;25297;44.758;11.310;2023-02-28T04:52:18;9.10;78.40
39601;DHT22;25297;44.758;11.310;2023-02-28T04:54:45;9.10;78.50
39601;DHT22;25297;44.758;11.310;2023-02-28T04:57:10;9.10;78.40
39601;DHT22;25297;44.758;11.310;2023-02-28T04:59:36;9.10;78.50
39601;DHT22;25297;44.758;11.310;2023-02-28T05:02:03;9.10;78.40
39601;DHT22;25297;44.758;11.310;2023-02-28T05:04:33;9.10;78.30
39601;DHT22;25297;44.758;11.310;2023-02-28T05:07:00;9.10;78.40
39601;DHT22;25297;44.758;11.310;2023-02-28T05:09:25;9.10;78.30
39601;DHT22;25297;44.758;11.310;2023-02-28T05:11:51;9.10;78.20
39601;DHT22;25297;44.758;11.310;2023-02-28T05:14:17;9.10;78.30
39601;DHT22;25297;44.758;11.310;2023-02-28T05:16:42;9.00;78.40
39601;DHT22;25297;44.758;11.310;2023-02-28T05:19:08;9.00;78.30
39601;DHT22;25297;44.758;11.310;2023-02-28T05:21:39;9.00;78.30
39601;DHT22;25297;44.758;11.310;2023-02-28T05:24:14;9.00;78.30
39601;DHT22;25297;44.758;11.310;2023-02-28T05:26:41;9.10;78.40
39601;DHT22;25297;44.758;11.310;2023-02-28T05:29:07;9.00;78.50
39601;DHT22;25297;44.758;11.310;2023-02-28T05:31:34;9.00;78.60
39601;DHT22;25297;44.758;11.310;2023-02-28T05:34:00;9.10;78.80
39601;DHT22;25297;44.758;11.310;2023-02-28T05:36:26;9.10;78.70
39601;DHT22;25297;44.758;11.310;2023-02-28T05:38:52;9.10;78.70
39601;DHT22;25297;44.758;11.310;2023-02-28T05:41:19;9.10;78.60
39601;DHT22;25297;44.758;11.310;2023-02-28T05:43:45;9.10;78.40
39601;DHT22;25297;44.758;11.310;2023-02-28T05:46:12;9.10;78.20
39601;DHT22;25297;44.758;11.310;2023-02-28T05:48:39;9.10;78.00
39601;DHT22;25297;44.758;11.310;2023-02-28T05:51:06;9.10;78.00
39601;DHT22;25297;44.758;11.310;2023-02-28T05:53:32;9.10;78.00
39601;DHT22;25297;44.758;11.310;2023-02-28T05:55:58;9.10;77.90
39601;DHT22;25297;44.758;11.310;2023-02-28T05:58:24;9.10;77.70
39601;DHT22;25297;44.758;11.310;2023-02-28T06:00:59;9.10;77.70
39601;DHT22;25297;44.758;11.310;2023-02-28T06:03:25;9.10;77.70
39601;DHT22;25297;44.758;11.310;2023-02-28T06:05:51;9.10;77.80
39601;DHT22;25297;44.758;11.310;2023-02-28T06:08:17;9.10;77.60
39601;DHT22;25297;44.758;11.310;2023-02-28T06:10:43;9.10;77.70
39601;DHT22;25297;44.758;11.310;2023-02-28T06:13:10;9.10;77.40
39601;DHT22;25297;44.758;11.310;2023-02-28T06:15:38;9.10;77.40
39601;DHT22;25297;44.758;11.310;2023-02-28T06:18:04;9.00;77.30
39601;DHT22;25297;44.758;11.310;2023-02-28T06:20:29;9.00;77.20
39601;DHT22;25297;44.758;11.310;2023-02-28T06:22:56;9.00;77.10
39601;DHT22;25297;44.758;11.310;2023-02-28T06:25:24;9.00;77.10
39601;DHT22;25297;44.758;11.310;2023-02-28T06:27:52;9.00;77.30
39601;DHT22;25297;44.758;11.310;2023-02-28T06:30:18;9.00;77.40
39601;DHT22;25297;44.758;11.310;2023-02-28T06:32:49;9.00;77.30
39601;DHT22;25297;44.758;11.310;2023-02-28T06:35:14;9.00;77.40
39601;DHT22;25297;44.758;11.310;2023-02-28T06:37:40;9.00;77.20
39601;DHT22;25297;44.758;11.310;2023-02-28T06:40:08;9.00;77.30
39601;DHT22;25297;44.758;11.310;2023-02-28T06:42:34;9.00;77.60
39601;DHT22;25297;44.758;11.310;2023-02-28T06:45:00;9.00;78.10
39601;DHT22;25297;44.758;11.310;2023-02-28T06:47:30;9.00;78.20
39601;DHT22;25297;44.758;11.310;2023-02-28T06:49:55;9.00;78.10
39601;DHT22;25297;44.758;11.310;2023-02-28T06:52:21;9.00;77.80
39601;DHT22;25297;44.758;11.310;2023-02-28T06:54:47;9.00;77.80
39601;DHT22;25297;44.758;11.310;2023-02-28T06:57:29;9.00;77.30
39601;DHT22;25297;44.758;11.310;2023-02-28T06:59:58;9.00;77.10
39601;DHT22;25297;44.758;11.310;2023-02-28T07:02:24;9.00;77.30
39601;DHT22;25297;44.758;11.310;2023-02-28T07:04:49;9.00;77.20
39601;DHT22;25297;44.758;11.310;2023-02-28T07:07:15;9.00;77.10
39601;DHT22;25297;44.758;11.310;2023-02-28T07:09:41;9.00;77.10
39601;DHT22;25297;44.758;11.310;2023-02-28T07:12:06;9.00;76.90
39601;DHT22;25297;44.758;11.310;2023-02-28T07:14:32;9.00;77.10
39601;DHT22;25297;44.758;11.310;2023-02-28T07:16:57;9.00;77.30
39601;DHT22;25297;44.758;11.310;2023-02-28T07:19:24;9.00;77.20
39601;DHT22;25297;44.758;11.310;2023-02-28T07:21:50;9.00;77.20
39601;DHT22;25297;44.758;11.310;2023-02-28T07:24:16;9.10;77.50
39601;DHT22;25297;44.758;11.310;2023-02-28T07:26:43;9.10;77.60
39601;DHT22;25297;44.758;11.310;2023-02-28T07:29:09;9.10;77.40
39601;DHT22;25297;44.758;11.310;2023-02-28T07:31:34;9.10;77.50
39601;DHT22;25297;44.758;11.310;2023-02-28T07:34:00;9.20;77.40
39601;DHT22;25297;44.758;11.310;2023-02-28T07:36:25;9.10;77.40
39601;DHT22;25297;44.758;11.310;2023-02-28T07:38:51;9.20;77.40
39601;DHT22;25297;44.758;11.310;2023-02-28T07:41:19;9.20;77.60
39601;DHT22;25297;44.758;11.310;2023-02-28T07:43:45;9.20;77.60
39601;DHT22;25297;44.758;11.310;2023-02-28T07:46:14;9.20;77.60
39601;DHT22;25297;44.758;11.310;2023-02-28T07:48:43;9.20;77.50
39601;DHT22;25297;44.758;11.310;2023-02-28T07:51:09;9.20;78.00
39601;DHT22;25297;44.758;11.310;2023-02-28T07:53:34;9.30;78.20
39601;DHT22;25297;44.758;11.310;2023-02-28T07:56:01;9.30;78.30
39601;DHT22;25297;44.758;11.310;2023-02-28T07:58:29;9.30;78.20
39601;DHT22;25297;44.758;11.310;2023-02-28T08:00:55;9.30;78.20
39601;DHT22;25297;44.758;11.310;2023-02-28T08:03:22;9.30;78.30
39601;DHT22;25297;44.758;11.310;2023-02-28T08:05:48;9.40;78.40
39601;DHT22;25297;44.758;11.310;2023-02-28T08:08:15;9.40;79.30
39601;DHT22;25297;44.758;11.310;2023-02-28T08:10:41;9.40;78.40
39601;DHT22;25297;44.758;11.310;2023-02-28T08:13:07;9.50;78.00
39601;DHT22;25297;44.758;11.310;2023-02-28T08:15:32;9.40;78.20
39601;DHT22;25297;44.758;11.310;2023-02-28T08:17:58;9.50;78.50
39601;DHT22;25297;44.758;11.310;2023-02-28T08:20:25;9.50;78.60
39601;DHT22;25297;44.758;11.310;2023-02-28T08:22:51;9.50;78.70
39601;DHT22;25297;44.758;11.310;2023-02-28T08:25:17;9.60;78.70
39601;DHT22;25297;44.758;11.310;2023-02-28T08:27:43;9.60;78.70
39601;DHT22;25297;44.758;11.310;2023-02-28T08:30:13;9.60;77.80
39601;DHT22;25297;44.758;11.310;2023-02-28T08:32:39;9.60;77.40
39601;DHT22;25297;44.758;11.310;2023-02-28T08:35:06;9.60;77.40
39601;DHT22;25297;44.758;11.310;2023-02-28T08:37:31;9.70;77.70
39601;DHT22;25297;44.758;11.310;2023-02-28T08:39:57;9.70;77.70
39601;DHT22;25297;44.758;11.310;2023-02-28T08:42:23;9.70;77.60
39601;DHT22;25297;44.758;11.310;2023-02-28T08:44:49;9.70;77.60
39601;DHT22;25297;44.758;11.310;2023-02-28T08:47:15;9.80;77.30
39601;DHT22;25297;44.758;11.310;2023-02-28T08:49:41;9.80;77.40
39601;DHT22;25297;44.758;11.310;2023-02-28T08:52:06;9.80;77.90
39601;DHT22;25297;44.758;11.310;2023-02-28T08:54:32;9.90;77.40
39601;DHT22;25297;44.758;11.310;2023-02-28T08:56:59;9.90;76.80
39601;DHT22;25297;44.758;11.310;2023-02-28T08:59:25;10.00;76.90
39601;DHT22;25297;44.758;11.310;2023-02-28T09:01:50;10.00;76.50
39601;DHT22;25297;44.758;11.310;2023-02-28T09:04:16;10.00;76.50
39601;DHT22;25297;44.758;11.310;2023-02-28T09:06:42;10.10;77.00
39601;DHT22;25297;44.758;11.310;2023-02-28T09:09:07;10.10;76.70
39601;DHT22;25297;44.758;11.310;2023-02-28T09:11:35;10.10;76.80
39601;DHT22;25297;44.758;11.310;2023-02-28T09:14:01;10.20;77.00
39601;DHT22;25297;44.758;11.310;2023-02-28T09:16:29;10.20;76.60
39601;DHT22;25297;44.758;11.310;2023-02-28T09:18:56;10.20;76.10
39601;DHT22;25297;44.758;11.310;2023-02-28T09:21:22;10.30;76.50
39601;DHT22;25297;44.758;11.310;2023-02-28T09:23:49;10.40;76.70
39601;DHT22;25297;44.758;11.310;2023-02-28T09:26:33;10.40;76.80
39601;DHT22;25297;44.758;11.310;2023-02-28T09:29:00;10.40;76.20
39601;DHT22;25297;44.758;11.310;2023-02-28T09:31:27;10.40;76.40
39601;DHT22;25297;44.758;11.310;2023-02-28T09:33:55;10.50;76.00
39601;DHT22;25297;44.758;11.310;2023-02-28T09:36:22;10.50;76.80
39601;DHT22;25297;44.758;11.310;2023-02-28T09:38:48;10.60;77.10
39601;DHT22;25297;44.758;11.310;2023-02-28T09:41:26;10.50;76.80
39601;DHT22;25297;44.758;11.310;2023-02-28T09:43:59;10.60;76.70
39601;DHT22;25297;44.758;11.310;2023-02-28T09:49:00;10.70;77.10
39601;DHT22;25297;44.758;11.310;2023-02-28T09:54:01;10.70;77.10
39601;DHT22;25297;44.758;11.310;2023-02-28T09:59:20;10.80;76.50
39601;DHT22;25297;44.758;11.310;2023-02-28T10:05:00;10.90;76.70
39601;DHT22;25297;44.758;11.310;2023-02-28T10:13:58;10.90;76.10
39601;DHT22;25297;44.758;11.310;2023-02-28T10:16:49;11.00;76.20
39601;DHT22;25297;44.758;11.310;2023-02-28T10:19:30;11.00;75.90
39601;DHT22;25297;44.758;11.310;2023-02-28T10:22:17;10.90;75.60
39601;DHT22;25297;44.758;11.310;2023-02-28T10:24:46;11.00;76.20
39601;DHT22;25297;44.758;11.310;2023-02-28T10:27:18;11.00;75.70
39601;DHT22;25297;44.758;11.310;2023-02-28T10:29:46;11.10;75.80
39601;DHT22;25297;44.758;11.310;2023-02-28T10:32:17;11.10;76.00
39601;DHT22;25297;44.758;11.310;2023-02-28T10:34:43;11.10;76.50
39601;DHT22;25297;44.758;11.310;2023-02-28T10:37:10;11.10;76.50
39601;DHT22;25297;44.758;11.310;2023-02-28T10:39:42;11.20;76.00
39601;DHT22;25297;44.758;11.310;2023-02-28T10:42:23;11.20;75.90
39601;DHT22;25297;44.758;11.310;2023-02-28T10:45:15;11.20;75.90
39601;DHT22;25297;44.758;11.310;2023-02-28T10:48:44;11.30;76.40
39601;DHT22;25297;44.758;11.310;2023-02-28T10:50:51;11.20;76.30
39601;DHT22;25297;44.758;11.310;2023-02-28T10:56:01;11.40;76.50
39601;DHT22;25297;44.758;11.310;2023-02-28T11:00:55;11.50;77.10
39601;DHT22;25297;44.758;11.310;2023-02-28T11:03:32;11.50;76.90
39601;DHT22;25297;44.758;11.310;2023-02-28T11:06:03;11.60;77.30
39601;DHT22;25297;44.758;11.310;2023-02-28T11:08:29;11.60;76.10
39601;DHT22;25297;44.758;11.310;2023-02-28T11:10:57;11.60;75.30
39601;DHT22;25297;44.758;11.310;2023-02-28T11:13:35;11.70;75.60
39601;DHT22;25297;44.758;11.310;2023-02-28T11:16:05;11.70;75.10
39601;DHT22;25297;44.758;11.310;2023-02-28T11:21:15;11.70;75.20
39601;DHT22;25297;44.758;11.310;2023-02-28T11:23:42;11.80;75.30
39601;DHT22;25297;44.758;11.310;2023-02-28T11:26:09;11.80;75.20
39601;DHT22;25297;44.758;11.310;2023-02-28T11:28:40;11.80;76.00
39601;DHT22;25297;44.758;11.310;2023-02-28T11:33:54;11.90;74.80
39601;DHT22;25297;44.758;11.310;2023-02-28T11:38:50;11.90;74.30
39601;DHT22;25297;44.758;11.310;2023-02-28T11:47:32;12.00;74.20
39601;DHT22;25297;44.758;11.310;2023-02-28T11:53:01;12.00;74.10
39601;DHT22;25297;44.758;11.310;2023-02-28T11:55:39;12.00;73.90
39601;DHT22;25297;44.758;11.310;2023-02-28T12:04:10;12.10;73.70
39601;DHT22;25297;44.758;11.310;2023-02-28T12:07:09;12.10;73.60
39601;DHT22;25297;44.758;11.310;2023-02-28T12:27:23;12.20;72.90
39601;DHT22;25297;44.758;11.310;2023-02-28T12:29:56;12.20;72.60
39601;DHT22;25297;44.758;11.310;2023-02-28T12:35:22;12.20;72.80
39601;DHT22;25297;44.758;11.310;2023-02-28T12:37:57;12.20;73.50
39601;DHT22;25297;44.758;11.310;2023-02-28T12:40:31;12.20;74.00
39601;DHT22;25297;44.758;11.310;2023-02-28T12:43:03;12.30;73.60
39601;DHT22;25297;44.758;11.310;2023-02-28T12:48:40;12.40;73.30
39601;DHT22;25297;44.758;11.310;2023-02-28T12:51:08;12.40;73.20
39601;DHT22;25297;44.758;11.310;2023-02-28T12:59:32;12.50;72.70
39601;DHT22;25297;44.758;11.310;2023-02-28T13:05:07;12.50;72.70
39601;DHT22;25297;44.758;11.310;2023-02-28T13:10:16;12.50;72.50
39601;DHT22;25297;44.758;11.310;2023-02-28T13:12:51;12.50;72.40
39601;DHT22;25297;44.758;11.310;2023-02-28T13:17:56;12.60;73.60
39601;DHT22;25297;44.758;11.310;2023-02-28T13:20:29;12.60;73.80
39601;DHT22;25297;44.758;11.310;2023-02-28T13:22:56;12.70;72.50
39601;DHT22;25297;44.758;11.310;2023-02-28T13:28:13;12.70;72.70
39601;DHT22;25297;44.758;11.310;2023-02-28T13:31:05;12.70;72.50
39601;DHT22;25297;44.758;11.310;2023-02-28T13:36:32;12.70;72.50
39601;DHT22;25297;44.758;11.310;2023-02-28T13:39:03;12.70;72.20
39601;DHT22;25297;44.758;11.310;2023-02-28T13:41:47;12.70;72.60
39601;DHT22;25297;44.758;11.310;2023-02-28T13:44:21;12.70;72.30
39601;DHT22;25297;44.758;11.310;2023-02-28T13:49:26;12.70;72.20
39601;DHT22;25297;44.758;11.310;2023-02-28T14:03:18;12.70;72.00
39601;DHT22;25297;44.758;11.310;2023-02-28T14:06:15;12.60;71.70
39601;DHT22;25297;44.758;11.310;2023-02-28T14:13:57;12.60;72.30
39601;DHT22;25297;44.758;11.310;2023-02-28T14:16:25;12.60;72.50
39601;DHT22;25297;44.758;11.310;2023-02-28T14:19:03;12.60;72.50
39601;DHT22;25297;44.758;11.310;2023-02-28T14:21:34;12.60;72.00
39601;DHT22;25297;44.758;11.310;2023-02-28T14:32:27;12.60;72.60
39601;DHT22;25297;44.758;11.310;2023-02-28T14:37:36;12.60;73.40
39601;DHT22;25297;44.758;11.310;2023-02-28T14:40:04;12.60;73.90
39601;DHT22;25297;44.758;11.310;2023-02-28T14:42:34;12.70;74.10
39601;DHT22;25297;44.758;11.310;2023-02-28T14:45:01;12.70;73.30
39601;DHT22;25297;44.758;11.310;2023-02-28T14:47:35;12.70;73.20
39601;DHT22;25297;44.758;11.310;2023-02-28T14:50:03;12.70;72.90
39601;DHT22;25297;44.758;11.310;2023-02-28T14:52:31;12.70;72.90
39601;DHT22;25297;44.758;11.310;2023-02-28T14:57:26;12.70;72.80
39601;DHT22;25297;44.758;11.310;2023-02-28T15:02:38;12.70;73.30
39601;DHT22;25297;44.758;11.310;2023-02-28T15:07:42;12.70;74.40
39601;DHT22;25297;44.758;11.310;2023-02-28T15:13:06;12.70;75.70
39601;DHT22;25297;44.758;11.310;2023-02-28T15:18:29;12.70;74.30
39601;DHT22;25297;44.758;11.310;2023-02-28T15:21:07;12.70;73.90
39601;DHT22;25297;44.758;11.310;2023-02-28T15:23:36;12.60;74.00
39601;DHT22;25297;44.758;11.310;2023-02-28T15:26:03;12.60;74.40
39601;DHT22;25297;44.758;11.310;2023-02-28T15:28:29;12.60;74.50
39601;DHT22;25297;44.758;11.310;2023-02-28T15:31:01;12.60;74.30
39601;DHT22;25297;44.758;11.310;2023-02-28T15:33:29;12.60;74.00
39601;DHT22;25297;44.758;11.310;2023-02-28T15:36:16;12.60;73.60
39601;DHT22;25297;44.758;11.310;2023-02-28T15:38:51;12.60;73.70
39601;DHT22;25297;44.758;11.310;2023-02-28T15:41:35;12.60;73.20
39601;DHT22;25297;44.758;11.310;2023-02-28T15:44:25;12.60;73.80
39601;DHT22;25297;44.758;11.310;2023-02-28T15:47:14;12.50;73.60
39601;DHT22;25297;44.758;11.310;2023-02-28T15:50:06;12.50;73.60
39601;DHT22;25297;44.758;11.310;2023-02-28T15:52:44;12.50;74.00
39601;DHT22;25297;44.758;11.310;2023-02-28T15:55:21;12.50;73.90
39601;DHT22;25297;44.758;11.310;2023-02-28T15:57:53;12.50;74.10
39601;DHT22;25297;44.758;11.310;2023-02-28T16:00:21;12.50;74.10
39601;DHT22;25297;44.758;11.310;2023-02-28T16:02:48;12.50;73.90
39601;DHT22;25297;44.758;11.310;2023-02-28T16:07:54;12.50;73.60
39601;DHT22;25297;44.758;11.310;2023-02-28T16:10:21;12.40;73.70
39601;DHT22;25297;44.758;11.310;2023-02-28T16:12:51;12.50;73.90
39601;DHT22;25297;44.758;11.310;2023-02-28T16:15:27;12.50;73.90
39601;DHT22;25297;44.758;11.310;2023-02-28T16:17:54;12.60;74.00
39601;DHT22;25297;44.758;11.310;2023-02-28T16:20:26;12.50;73.70
39601;DHT22;25297;44.758;11.310;2023-02-28T16:22:52;12.50;73.70
39601;DHT22;25297;44.758;11.310;2023-02-28T16:25:25;12.50;74.40
39601;DHT22;25297;44.758;11.310;2023-02-28T16:27:53;12.50;74.20
39601;DHT22;25297;44.758;11.310;2023-02-28T16:30:21;12.50;74.70
39601;DHT22;25297;44.758;11.310;2023-02-28T16:32:48;12.50;75.00
39601;DHT22;25297;44.758;11.310;2023-02-28T16:35:14;12.50;74.70
39601;DHT22;25297;44.758;11.310;2023-02-28T16:37:40;12.50;74.90
39601;DHT22;25297;44.758;11.310;2023-02-28T16:40:17;12.50;74.80
39601;DHT22;25297;44.758;11.310;2023-02-28T16:42:44;12.50;75.00
39601;DHT22;25297;44.758;11.310;2023-02-28T16:45:20;12.50;75.50
39601;DHT22;25297;44.758;11.310;2023-02-28T16:47:46;12.50;76.00
39601;DHT22;25297;44.758;11.310;2023-02-28T16:50:17;12.40;76.50
39601;DHT22;25297;44.758;11.310;2023-02-28T16:52:43;12.40;76.50
39601;DHT22;25297;44.758;11.310;2023-02-28T16:55:09;12.40;76.80
39601;DHT22;25297;44.758;11.310;2023-02-28T16:57:35;12.40;76.60
39601;DHT22;25297;44.758;11.310;2023-02-28T17:00:02;12.40;76.80
39601;DHT22;25297;44.758;11.310;2023-02-28T17:02:28;12.40;76.60
39601;DHT22;25297;44.758;11.310;2023-02-28T17:04:54;12.40;76.50
39601;DHT22;25297;44.758;11.310;2023-02-28T17:07:19;12.30;76.70
39601;DHT22;25297;44.758;11.310;2023-02-28T17:09:45;12.30;76.80
39601;DHT22;25297;44.758;11.310;2023-02-28T17:12:11;12.30;76.50
39601;DHT22;25297;44.758;11.310;2023-02-28T17:14:37;12.30;76.30
39601;DHT22;25297;44.758;11.310;2023-02-28T17:17:05;12.20;76.70
39601;DHT22;25297;44.758;11.310;2023-02-28T17:19:31;12.20;77.50
39601;DHT22;25297;44.758;11.310;2023-02-28T17:21:56;12.20;77.20
39601;DHT22;25297;44.758;11.310;2023-02-28T17:24:22;12.10;77.00
39601;DHT22;25297;44.758;11.310;2023-02-28T17:26:47;12.10;77.10
39601;DHT22;25297;44.758;11.310;2023-02-28T17:29:19;12.00;77.30
39601;DHT22;25297;44.758;11.310;2023-02-28T17:31:46;12.00;77.80
39601;DHT22;25297;44.758;11.310;2023-02-28T17:34:11;12.00;78.20
39601;DHT22;25297;44.758;11.310;2023-02-28T17:36:47;11.90;77.90
39601;DHT22;25297;44.758;11.310;2023-02-28T17:39:14;11.90;77.80
39601;DHT22;25297;44.758;11.310;2023-02-28T17:41:41;11.90;77.60
39601;DHT22;25297;44.758;11.310;2023-02-28T17:44:08;11.80;77.70
39601;DHT22;25297;44.758;11.310;2023-02-28T17:46:34;11.70;78.20
39601;DHT22;25297;44.758;11.310;2023-02-28T17:49:00;11.70;78.60
39601;DHT22;25297;44.758;11.310;2023-02-28T17:51:26;11.70;78.60
39601;DHT22;25297;44.758;11.310;2023-02-28T17:53:52;11.70;78.90
39601;DHT22;25297;44.758;11.310;2023-02-28T17:56:23;11.60;79.40
39601;DHT22;25297;44.758;11.310;2023-02-28T17:58:49;11.60;79.40
39601;DHT22;25297;44.758;11.310;2023-02-28T18:01:16;11.50;79.40
39601;DHT22;25297;44.758;11.310;2023-02-28T18:03:42;11.50;79.80
39601;DHT22;25297;44.758;11.310;2023-02-28T18:08:58;11.50;80.10
39601;DHT22;25297;44.758;11.310;2023-02-28T18:11:24;11.40;80.40
39601;DHT22;25297;44.758;11.310;2023-02-28T18:13:53;11.40;80.30
39601;DHT22;25297;44.758;11.310;2023-02-28T18:16:20;11.40;80.00
39601;DHT22;25297;44.758;11.310;2023-02-28T18:18:47;11.40;80.50
39601;DHT22;25297;44.758;11.310;2023-02-28T18:21:15;11.40;81.00
39601;DHT22;25297;44.758;11.310;2023-02-28T18:23:41;11.30;80.40
39601;DHT22;25297;44.758;11.310;2023-02-28T18:26:16;11.30;79.70
39601;DHT22;25297;44.758;11.310;2023-02-28T18:28:42;11.30;79.70
39601;DHT22;25297;44.758;11.310;2023-02-28T18:31:14;11.30;79.90
39601;DHT22;25297;44.758;11.310;2023-02-28T18:33:40;11.30;80.20
39601;DHT22;25297;44.758;11.310;2023-02-28T18:36:06;11.20;80.40
39601;DHT22;25297;44.758;11.310;2023-02-28T18:38:32;11.20;80.70
39601;DHT22;25297;44.758;11.310;2023-02-28T18:41:02;11.20;80.90
39601;DHT22;25297;44.758;11.310;2023-02-28T18:43:30;11.10;81.10
39601;DHT22;25297;44.758;11.310;2023-02-28T18:45:55;11.10;81.20